createdAt,value
2022-10-24T00:09:12.838Z,35.03
2022-10-24T00:14:15.076Z,33.07
2022-10-24T00:19:17.337Z,31.43
2022-10-24T00:24:19.837Z,30.33
2022-10-24T00:29:22.439Z,29.47
2022-10-24T00:34:24.765Z,29.40
2022-10-24T00:39:27.045Z,35.30
2022-10-24T00:44:32.353Z,33.67
2022-10-24T00:50:12.912Z,31.17
2022-10-24T00:55:15.940Z,30.70
2022-10-24T01:00:23.249Z,29.43
2022-10-24T01:05:30.440Z,27.73
2022-10-24T01:10:41.836Z,29.33
2022-10-24T01:16:15.876Z,29.80
2022-10-24T01:21:42.524Z,31.60
2022-10-24T01:27:05.509Z,28.77
2022-10-24T01:32:22.335Z,30.20
2022-10-24T01:37:51.402Z,30.07
2022-10-24T01:42:58.367Z,26.77
2022-10-24T01:48:04.020Z,20.43
2022-10-24T01:53:08.626Z,18.50
2022-10-24T01:58:11.009Z,26.37
2022-10-24T02:03:25.177Z,26.60
2022-10-24T02:08:34.193Z,25.17
2022-10-24T02:13:45.662Z,22.53
2022-10-24T02:18:51.026Z,22.37
2022-10-24T02:24:01.447Z,23.13
2022-10-24T02:29:10.761Z,23.23
2022-10-24T02:34:14.327Z,17.80
2022-10-24T02:39:17.528Z,15.37
2022-10-24T02:44:21.218Z,52.03
2022-10-24T02:49:24.767Z,25.23
2022-10-24T02:54:27.132Z,14.03
2022-10-24T02:59:29.974Z,16.57
2022-10-24T03:04:32.361Z,15.30
2022-10-24T03:09:35.148Z,14.77
2022-10-24T03:14:37.487Z,15.67
2022-10-24T03:19:39.759Z,23.60
2022-10-24T03:24:55.026Z,28.90
2022-10-24T03:29:57.740Z,18.30
2022-10-24T03:35:00.888Z,15.23
2022-10-24T03:40:03.626Z,16.30
2022-10-24T03:45:06.597Z,16.83
2022-10-24T03:50:09.295Z,15.27
2022-10-24T03:55:12.280Z,12.43
2022-10-24T04:00:15.362Z,12.47
2022-10-24T04:05:18.202Z,13.90
2022-10-24T04:10:20.552Z,13.77
2022-10-24T04:15:23.122Z,12.40
2022-10-24T04:20:25.549Z,12.77
2022-10-24T04:25:27.878Z,16.43
2022-10-24T04:30:30.215Z,24.57
2022-10-24T04:35:32.526Z,21.90
2022-10-24T04:40:34.833Z,24.07
2022-10-24T04:45:37.139Z,25.27
2022-10-24T04:50:41.289Z,22.60
2022-10-24T04:55:44.295Z,20.73
2022-10-24T05:00:49.717Z,21.60
2022-10-24T05:05:52.087Z,20.17
2022-10-24T05:10:54.535Z,21.37
2022-10-24T05:15:56.806Z,14.60
2022-10-24T05:21:00.252Z,11.87
2022-10-24T05:26:02.533Z,11.73
2022-10-24T05:31:05.064Z,11.93
2022-10-24T05:36:07.731Z,13.17
2022-10-24T05:41:10.020Z,18.90
2022-10-24T05:46:12.373Z,18.50
2022-10-24T05:51:14.726Z,21.77
2022-10-24T05:56:17.073Z,21.10
2022-10-24T06:01:19.387Z,21.63
2022-10-24T06:06:22.104Z,25.33
2022-10-24T06:11:24.433Z,27.63
2022-10-24T06:16:27.678Z,27.40
2022-10-24T06:21:30.118Z,31.40
2022-10-24T06:26:32.436Z,30.40
2022-10-24T06:31:35.844Z,30.87
2022-10-24T06:36:38.207Z,31.87
2022-10-24T06:41:40.709Z,35.60
2022-10-24T06:46:49.630Z,37.60
2022-10-24T06:51:51.973Z,60.07
2022-10-24T06:56:54.343Z,53.60
2022-10-24T07:02:00.368Z,54.63
2022-10-24T07:07:05.686Z,45.70
2022-10-24T07:12:08.165Z,38.47
2022-10-24T07:17:10.517Z,33.33
2022-10-24T07:22:12.824Z,35.07
2022-10-24T07:27:17.887Z,22.63
2022-10-24T07:32:22.191Z,27.27
2022-10-24T07:42:26.765Z,24.07
2022-10-24T07:47:29.230Z,22.83
2022-10-24T07:52:31.566Z,24.63
2022-10-24T07:57:33.962Z,25.90
2022-10-24T08:02:36.394Z,27.00
2022-10-24T08:07:42.298Z,23.47
2022-10-24T08:12:45.092Z,15.43
2022-10-24T08:17:49.705Z,17.90
2022-10-24T08:22:53.167Z,14.50
2022-10-24T08:27:55.543Z,13.30
2022-10-24T08:32:57.873Z,12.77
2022-10-24T08:38:01.665Z,12.37
2022-10-24T08:43:04.048Z,12.53
2022-10-24T08:48:13.272Z,13.13
2022-10-24T08:53:28.987Z,12.80
2022-10-24T08:58:37.959Z,11.97
2022-10-24T09:03:56.654Z,12.33
2022-10-24T09:09:20.829Z,13.20
2022-10-24T09:14:27.730Z,12.70
2022-10-24T09:19:31.280Z,12.20
2022-10-24T09:24:42.705Z,12.80
2022-10-24T09:29:45.414Z,13.80
2022-10-24T09:34:48.918Z,13.57
2022-10-24T09:40:06.345Z,13.77
2022-10-24T09:45:30.405Z,11.30
2022-10-24T09:50:35.493Z,10.90
2022-10-24T09:55:46.823Z,10.33
2022-10-24T10:01:05.893Z,9.30
2022-10-24T10:06:20.981Z,9.83
2022-10-24T10:11:35.017Z,8.73
2022-10-24T10:16:40.114Z,9.27
2022-10-24T10:22:01.937Z,7.90
2022-10-24T10:27:26.167Z,7.47
2022-10-24T10:32:38.314Z,7.47
2022-10-24T10:37:50.184Z,7.30
2022-10-24T10:43:03.600Z,6.73
2022-10-24T10:48:15.707Z,7.00
2022-10-24T10:53:25.874Z,7.00
2022-10-24T10:58:49.704Z,7.50
2022-10-24T11:04:08.836Z,6.97
2022-10-24T11:09:22.969Z,6.30
2022-10-24T11:14:30.029Z,5.60
2022-10-24T11:19:35.744Z,6.50
2022-10-24T11:24:46.911Z,6.07
2022-10-24T11:30:06.849Z,5.40
2022-10-24T11:35:29.489Z,5.40
2022-10-24T11:40:33.091Z,5.60
2022-10-24T11:45:50.972Z,5.70
2022-10-24T11:51:01.232Z,6.03
2022-10-24T11:56:23.498Z,5.17
2022-10-24T12:01:54.477Z,5.95
2022-10-24T12:07:06.549Z,6.55
2022-10-24T12:12:20.914Z,5.78
2022-10-24T12:17:30.270Z,5.40
2022-10-24T12:22:42.120Z,5.93
2022-10-24T12:27:44.799Z,6.38
2022-10-24T12:32:51.085Z,5.57
2022-10-24T12:37:54.464Z,5.57
2022-10-24T12:42:56.925Z,6.15
2022-10-24T12:47:59.277Z,5.97
2022-10-24T12:53:18.572Z,5.20
2022-10-24T12:58:29.367Z,5.55
2022-10-24T13:03:48.950Z,6.05
2022-10-24T13:09:00.674Z,5.60
2022-10-24T13:14:27.760Z,7.38
2022-10-24T13:19:31.335Z,6.78
2022-10-24T13:24:40.557Z,8.90
2022-10-24T13:29:44.112Z,6.63
2022-10-24T13:34:54.567Z,5.60
2022-10-24T13:40:15.520Z,7.00
2022-10-24T13:45:47.120Z,17.87
2022-10-24T13:51:28.882Z,17.33
2022-10-24T13:56:37.820Z,10.47
2022-10-24T14:01:41.466Z,11.60
2022-10-24T14:06:44.437Z,8.82
2022-10-24T14:11:48.974Z,9.10
2022-10-24T14:17:08.706Z,8.75
2022-10-24T14:22:23.548Z,22.13
2022-10-24T14:27:26.608Z,31.40
2022-10-24T14:32:31.269Z,17.50
2022-10-24T14:37:37.259Z,9.40
2022-10-24T14:42:39.764Z,9.93
2022-10-24T14:47:51.391Z,16.90
2022-10-24T14:52:53.716Z,33.57
2022-10-24T14:57:57.090Z,42.07
2022-10-24T15:03:01.484Z,23.43
2022-10-24T15:08:28.145Z,27.00
2022-10-24T15:13:47.964Z,30.07
2022-10-24T15:18:56.019Z,34.97
2022-10-24T15:24:00.089Z,33.17
2022-10-24T15:29:02.400Z,30.63
2022-10-24T15:34:16.466Z,33.17
2022-10-24T15:39:22.342Z,33.37
2022-10-24T15:44:31.328Z,40.77
2022-10-24T15:49:36.841Z,45.47
2022-10-24T15:54:39.227Z,49.43
2022-10-24T15:59:41.662Z,38.60
2022-10-24T16:04:46.577Z,54.20
2022-10-24T16:09:51.051Z,54.47
2022-10-24T16:14:53.642Z,30.03
2022-10-24T16:19:55.946Z,50.93
2022-10-24T16:24:58.233Z,21.20
2022-10-24T16:30:00.540Z,38.37
2022-10-24T16:35:02.959Z,33.67
2022-10-24T16:40:05.685Z,21.63
2022-10-24T16:45:08.841Z,19.67
2022-10-24T16:50:16.355Z,23.37
2022-10-24T16:55:19.422Z,35.73
2022-10-24T17:00:22.601Z,32.47
2022-10-24T17:05:27.343Z,25.83
2022-10-24T17:10:30.101Z,24.07
2022-10-24T17:15:32.886Z,21.33
2022-10-24T17:20:35.295Z,20.77
2022-10-24T17:25:37.835Z,18.73
2022-10-24T17:30:40.355Z,17.50
2022-10-24T17:35:50.639Z,16.00
2022-10-24T17:40:58.246Z,23.97
2022-10-24T17:46:00.830Z,26.30
2022-10-24T17:51:03.233Z,13.63
2022-10-24T17:56:05.911Z,16.37
2022-10-24T18:01:08.584Z,21.50
2022-10-24T18:06:12.571Z,25.50
2022-10-24T18:11:15.026Z,21.60
2022-10-24T18:16:19.545Z,16.10
2022-10-24T18:21:24.844Z,16.40
2022-10-24T18:26:27.915Z,18.40
2022-10-24T18:31:31.301Z,11.07
2022-10-24T18:36:33.679Z,12.77
2022-10-24T18:41:44.517Z,11.20
2022-10-24T18:46:47.054Z,11.70
2022-10-24T18:52:15.798Z,11.47
2022-10-24T18:57:28.025Z,12.37
2022-10-24T19:02:38.974Z,14.23
2022-10-24T19:07:42.308Z,17.67
2022-10-24T19:12:45.106Z,20.20
2022-10-24T19:17:49.739Z,21.73
2022-10-24T19:22:52.229Z,24.47
2022-10-24T19:27:54.564Z,21.00
2022-10-24T19:32:56.895Z,28.73
2022-10-24T19:37:59.192Z,18.17
2022-10-24T19:43:01.538Z,11.90
2022-10-24T19:48:04.192Z,9.77
2022-10-24T19:53:06.656Z,8.57
2022-10-24T19:58:14.334Z,7.47
2022-10-24T20:03:16.617Z,6.20
2022-10-24T20:08:18.900Z,6.93
2022-10-24T20:13:27.156Z,7.50
2022-10-24T20:18:31.382Z,7.40
2022-10-24T20:23:37.504Z,7.47
2022-10-24T20:28:43.324Z,7.80
2022-10-24T20:33:45.753Z,7.40
2022-10-24T20:38:48.079Z,8.00
2022-10-24T20:43:55.819Z,8.40
2022-10-24T20:48:58.307Z,8.97
2022-10-24T20:54:00.738Z,8.47
2022-10-24T20:59:03.293Z,8.30
2022-10-24T21:04:05.661Z,8.33
2022-10-24T21:09:08.130Z,8.33
2022-10-24T21:14:13.510Z,8.13
2022-10-24T21:19:16.331Z,8.50
2022-10-24T21:24:19.050Z,8.80
2022-10-24T21:29:32.656Z,9.50
2022-10-24T21:34:35.337Z,9.80
2022-10-24T21:39:37.731Z,8.23
2022-10-24T21:44:40.029Z,8.83
2022-10-24T21:49:42.396Z,9.40
2022-10-24T21:54:44.695Z,9.03
2022-10-24T21:59:46.984Z,9.77
2022-10-24T22:04:49.432Z,9.73
2022-10-24T22:09:51.770Z,9.83
2022-10-24T22:14:54.114Z,9.53
2022-10-24T22:19:56.710Z,10.40
2022-10-24T22:25:01.128Z,10.40
2022-10-24T22:30:03.638Z,9.20
2022-10-24T22:35:06.574Z,10.03
2022-10-24T22:40:31.847Z,9.57
2022-10-24T22:45:34.378Z,9.27
2022-10-24T22:50:50.555Z,9.23
2022-10-24T22:56:14.365Z,9.83
2022-10-24T23:01:35.572Z,9.27
2022-10-24T23:06:46.525Z,9.53
2022-10-24T23:11:49.389Z,9.30
2022-10-24T23:17:00.622Z,9.70
2022-10-24T23:22:12.142Z,10.50
2022-10-24T23:27:38.116Z,10.87
2022-10-24T23:32:40.892Z,10.20
2022-10-24T23:37:45.900Z,9.87
2022-10-24T23:42:49.753Z,10.13
2022-10-24T23:48:10.708Z,10.00
2022-10-24T23:53:33.414Z,9.20
2022-10-24T23:58:35.783Z,9.03
